Mae Hong Son, Thailand
Current Conditions -  °F | °C
As of 8:00 PM on Thursday 30 Oct 2014 (Local Time) from VTCC Reporting Station
Scattered Clouds Scattered Clouds  
Wind Chill: 81°   Ceiling: Unl
Heat Index: 85°   Visibility: 6mi
Dew Point: 72°   Wind: 5mph
Humidity: 74%   Direction: 230°SW
Pressure: 29.91"   Gusts: NA
Location:  19.27°N, 97.93°E
Report Text: VTCC 301300Z 23004KT 9999 SCT035 27/22 Q1013 A2993 NOSIG
Loading
Personal Weather Stations






























Interactive Weather Map
Tropical Storm Tracking
New forecast layout! Learn more

10-Day Weather Forecast

Advertisements
Track Severe Weather on mobile